Ernest A. Love Field
KPRC : now visible

Airfield :











YOU CAN JOIN US ON...

 
LOGIN :

Register | Disclaimer

   EN    FR    IT 

 









Legend :    VFR   Marginal VFR   IFR   Intensive IFR   Very Intensive IFR
Visi :
Ceiling :
>= 8 km
>= 3000ft
5 to 8 km
1000 to 3000 ft
1500m to 5 km
500 to 1000 ft
800 to 1500m
200 to 500 ft
< 800m
< 200 ft
Symbols :   Thunderstorms  Fog  Heavy snow  Heavy precipitations  Wind > 20 kt






- Airport Elevation : 5045 ft
- IATA code : PRC


KPRC - Ernest A. Love Field

CURRENT METAR :
  • 220706Z AUTO 13005KT 9SM FEW001 SCT024 01/00 A3010 RMK AO2 T00060000

EXPIRED METARs :
  • 220653Z AUTO 00000KT 1 3/4SM BR SCT001 BKN024 01/01 A3010 RMK AO2 SLP180 T00060006 400670006
  • 220643Z AUTO 00000KT 2 1/2SM BR SCT001 BKN024 01/01 A3010 RMK AO2 T00060006
  • 220617Z AUTO 15003KT 1/4SM FG VV001 01/01 A3010 RMK AO2 T00110011
  • 220608Z AUTO 13004KT 3/4SM BR VV001 02/01 A3010 RMK AO2 T00170011
  • 220553Z AUTO 17003KT 8SM FEW002 FEW032 BKN060 02/01 A3009 RMK AO2 SLP172 60003 T00170011 10033 20017 51010
  • 220516Z AUTO 17003KT 7SM BKN002 BKN006 OVC060 02/02 A3008 RMK AO2 T00170017
  • 220453Z 17004KT 9SM BKN006 02/02 A3008 RMK AO2 SLP167 T00220017
  • 220444Z 17005KT 10SM SCT006 02/02 A3008 RMK AO2 T00220017

TAF KPRC
Valid from the 22 at 06:00 until the 23 at 06:00 UTC


220520Z 2206/2306 VRB05KT P6SM BKN005
FM221600 VRB05KT P6SM SKC



MET'MAP, your aeronautical weather chart ! - Copyright ORBIFLY December 2007 - Disclaimer

ORBIFLY MET'MAP TEAM :

Programming & Development : Alexandra Zaïnal
Concept & Development : Baudouin d'Aumeries
Co-Development & Prog : Marc-Olivier Méhu
Technical & hardware support : Manuel Goepfert

Contact : metmap@orbifly.com




SOURCES & CREDITS :

   NOAA       Earth
Advisory